Latest Coastal Weather Observations for Roebourne Airport

IDW60701

Issued at 10:03 pm WST Wednesday 18 January 2017 (issued every 10 minutes, with the page automatically refreshed every 10 minutes)

About coastal observations | Map of coastal stations | Coastal observations for WA | Marine services | Other Formats
Station Details ID: 004090 Name: ROEBOURNE AERO Lat: -20.76 Lon: 117.16 Height: 10.7 m
Data from the previous 72 hours. | See also: Recent months at Roebourne Airport
Date/Time
WST
Temp
°C
Wind Pressure Rain since
9am
mm
Weather Cloud Vis
km
Sea
Height
m
Swell
Dir  Spd
kts
Gust
kts
hPa Trend Height
m
Period
s
Dir
18/09:30pm 28.1 W 15 21 1006.3 - 0.0 - - - - - - -
18/09:00pm 28.2 W 13 20 1006.3 - 0.0 - - - - - - -
18/08:30pm 28.3 W 17 22 1006.5 - 0.0 - - - - - - -
18/08:00pm 28.7 W 14 20 1006.3 - 0.0 - - - - - - -
18/07:30pm 28.8 W 18 23 1005.9 - 0.0 - - - - - - -
18/07:00pm 29.2 W 17 23 1005.2 - 0.0 - - - - - - -
18/06:30pm 29.6 W 18 23 1004.9 - 0.0 - - - - - - -
18/06:00pm 30.2 WNW 17 23 1004.3 - 0.0 - - - - - - -
18/05:30pm 30.7 WNW 17 21 1003.9 - 0.0 - - - - - - -
18/05:00pm 31.2 WNW 19 23 1003.8 - 0.0 - - - - - - -
18/04:30pm 31.0 WNW 19 25 1003.7 - 0.0 - - - - - - -
18/04:00pm 31.8 WNW 19 24 1003.6 - 0.0 - - - - - - -
18/03:30pm 32.7 WNW 19 25 1003.6 - 0.0 - - - - - - -
18/03:00pm 34.2 WNW 18 23 1003.8 - 0.0 - - - - - - -
18/02:30pm 33.4 WNW 17 23 1004.2 - 0.0 - - - - - - -
18/02:00pm 33.2 NW 19 24 1004.4 - 0.0 - - - - - - -
18/01:30pm 34.0 NW 18 23 1004.8 - 0.0 - - - - - - -
18/01:00pm 34.2 NW 16 22 1005.1 - 0.0 - - - - - - -
18/12:30pm 34.2 WNW 13 19 1005.5 - 0.0 - - - - - - -
18/12:00pm 34.4 NW 13 19 1005.8 - 0.0 - - - - - - -
18/11:30am 33.6 NW 11 16 1006.1 - 0.0 - - - - - - -
18/11:00am 33.3 NW 9 17 1006.3 - 0.0 - - - - - - -
18/10:30am 33.1 WNW 9 15 1006.5 - 0.0 - - - - - - -
18/10:00am 31.4 W 8 13 1006.8 - 0.0 - - - - - - -
18/09:30am 30.8 WNW 8 13 1007.0 - 0.0 - - - - - - -
18/09:00am 30.2 WNW 9 14 1007.2 - 0.0 - - - - - - -
18/08:30am 29.9 WNW 9 12 1007.2 - 0.0 - - - - - - -
18/08:00am 29.1 W 10 13 1007.1 - 0.0 - - - - - - -
18/07:30am 28.6 W 9 11 1007.2 - 0.0 - - - - - - -
18/07:00am 28.0 WNW 8 10 1007.0 - 0.0 - - - - - - -
18/06:30am 27.0 W 5 7 1006.8 - 0.0 - - - - - - -
18/06:00am 26.7 W 8 9 1006.4 - 0.0 - - - - - - -
18/05:30am 26.9 W 7 8 1006.3 - 0.0 - - - - - - -
18/05:00am 26.8 W 5 7 1006.1 - 0.0 - - - - - - -
18/04:30am 26.9 WSW 9 11 1006.1 - 0.0 - - - - - - -
18/04:00am 26.8 WSW 6 8 1006.0 - 0.0 - - - - - - -
18/03:30am 26.9 W 6 8 1006.0 - 0.0 - - - - - - -
18/03:00am 27.0 W 9 12 1005.8 - 0.0 - - - - - - -
18/02:30am 27.1 WSW 9 12 1006.1 - 0.0 - - - - - - -
18/02:00am 27.1 WSW 10 13 1006.1 - 0.0 - - - - - - -
18/01:30am 27.1 W 12 14 1006.2 - 0.0 - - - - - - -
18/01:00am 27.3 W 12 16 1006.4 - 0.0 - - - - - - -
18/12:30am 27.4 W 13 16 1006.5 - 0.0 - - - - - - -
18/12:00am 27.5 W 12 16 1006.8 - 0.0 - - - - - - -
 
Date/Time
WST
Temp
°C
Wind Pressure Rain since
9am
mm
Weather Cloud Vis
km
Sea
Height
m
Swell
Dir  Spd
kts
Gust
kts
hPa Trend Height
m
Period
s
Dir
17/11:30pm 27.8 W 13 17 1007.1 - 0.0 - - - - - - -
17/11:00pm 27.9 W 13 17 1007.2 - 0.0 - - - - - - -
17/10:30pm 27.9 W 14 17 1007.0 - 0.0 - - - - - - -
17/10:00pm 28.0 WNW 13 17 1007.0 - 0.0 - - - - - - -
17/09:30pm 28.1 W 13 17 1006.8 - 0.0 - - - - - - -
17/09:00pm 28.3 W 13 16 1006.5 - 0.0 - - - - - - -
17/08:30pm 28.6 WNW 14 19 1006.0 - 0.0 - - - - - - -
17/08:00pm 28.9 WNW 15 19 1005.9 - 0.0 - - - - - - -
17/07:30pm 29.3 WNW 14 19 1005.5 - 0.0 - - - - - - -
17/07:00pm 29.7 NW 15 18 1004.9 - 0.0 - - - - - - -
17/06:30pm 30.8 WNW 14 18 1004.5 - 0.0 - - - - - - -
17/06:00pm 31.3 NW 16 20 1004.2 - 0.0 - - - - - - -
17/05:30pm 32.2 NW 16 20 1003.7 - 0.0 - - - - - - -
17/05:00pm 33.2 WNW 15 20 1003.6 - 0.0 - - - - - - -
17/04:30pm 33.4 WNW 17 22 1003.4 - 0.0 - - - - - - -
17/04:00pm 34.5 NW 16 21 1003.5 - 0.0 - - - - - - -
17/03:30pm 34.6 NW 17 21 1003.6 - 0.0 - - - - - - -
17/03:00pm 34.2 NW 16 22 1003.9 - 0.0 - - - - - - -
17/02:30pm 34.6 NW 14 19 1004.2 - 0.0 - - - - - - -
17/02:00pm 34.5 WNW 13 19 1004.4 - 0.0 - - - - - - -
17/01:30pm 34.1 NW 13 19 1004.7 - 0.0 - - - - - - -
17/01:00pm 35.1 WNW 14 19 1004.9 - 0.0 - - - - - - -
17/12:30pm 34.9 NW 12 19 1005.1 - 0.0 - - - - - - -
17/12:00pm 33.6 WNW 12 19 1005.2 - 0.0 - - - - - - -
17/11:30am 34.2 W 9 17 1005.4 - 0.0 - - - - - - -
17/11:00am 33.9 WSW 7 12 1005.8 - 0.0 - - - - - - -
17/10:30am 33.1 WSW 5 11 1006.1 - 0.0 - - - - - - -
17/10:00am 32.3 NW 7 11 1006.2 - 0.0 - - - - - - -
17/09:30am 31.5 NW 6 9 1006.3 - 0.0 - - - - - - -
17/09:00am 30.6 WNW 7 10 1006.3 - 0.0 - - - - - - -
17/08:30am 29.9 WNW 5 10 1006.7 - 0.0 - - - - - - -
17/08:00am 29.0 W 7 9 1006.7 - 0.0 - - - - - - -
17/07:30am 28.3 W 8 10 1006.7 - 0.0 - - - - - - -
17/07:00am 27.4 WSW 6 9 1007.0 - 0.0 - - - - - - -
17/06:30am 26.7 WSW 7 8 1006.7 - 0.0 - - - - - - -
17/06:00am 26.6 WSW 7 9 1006.3 - 0.0 - - - - - - -
17/05:30am 26.5 WSW 7 8 1006.0 - 0.0 - - - - - - -
17/05:00am 26.8 W 7 9 1005.7 - 0.0 - - - - - - -
17/04:30am 27.2 W 8 9 1005.2 - 0.0 - - - - - - -
17/04:00am 27.2 W 7 10 1005.0 - 0.0 - - - - - - -
17/03:30am 27.4 WSW 8 9 1005.1 - 0.0 - - - - - - -
17/03:00am 27.6 W 9 12 1005.1 - 0.0 - - - - - - -
17/02:30am 27.6 W 10 13 1005.0 - 0.0 - - - - - - -
17/02:00am 27.4 W 9 11 1005.1 - 0.0 - - - - - - -
17/01:30am 27.7 W 10 12 1005.2 - 0.0 - - - - - - -
17/01:00am 27.8 WSW 10 13 1005.4 - 0.0 - - - - - - -
17/12:30am 27.9 W 9 11 1005.7 - 0.0 - - - - - - -
17/12:00am 27.6 W 8 10 1006.1 - 0.0 - - - - - - -
 
Date/Time
WST
Temp
°C
Wind Pressure Rain since
9am
mm
Weather Cloud Vis
km
Sea
Height
m
Swell
Dir  Spd
kts
Gust
kts
hPa Trend Height
m
Period
s
Dir
16/11:30pm 27.8 W 9 11 1006.4 - 0.0 - - - - - - -
16/11:00pm 27.9 WSW 8 10 1006.8 - 0.0 - - - - - - -
16/10:30pm 28.0 W 8 11 1006.8 - 0.0 - - - - - - -
16/10:00pm 28.2 W 9 11 1006.9 - 0.0 - - - - - - -
16/09:30pm 28.5 WNW 9 11 1006.6 - 0.0 - - - - - - -
16/09:00pm 28.6 W 11 13 1006.3 - 0.0 - - - - - - -
16/08:30pm 29.0 WNW 11 14 1005.8 - 0.0 - - - - - - -
16/08:00pm 29.2 W 10 13 1005.4 - 0.0 - - - - - - -
16/07:30pm 29.5 WNW 11 14 1004.9 - 0.0 - - - - - - -
16/07:00pm 30.0 NW 13 15 1004.5 - 0.0 - - - - - - -
16/06:30pm 30.5 NW 12 15 1004.2 - 0.0 - - - - - - -
16/06:00pm 31.6 NW 13 15 1003.8 - 0.0 - - - - - - -
16/05:30pm 32.0 NW 13 17 1003.7 - 0.0 - - - - - - -
16/05:00pm 32.6 NNW 13 16 1003.7 - 0.0 - - - - - - -
16/04:30pm 33.8 NW 11 15 1003.7 - 0.0 - - - - - - -
16/04:00pm 33.3 NNW 11 17 1003.8 - 0.0 - - - - - - -
16/03:30pm 33.5 NNW 12 16 1004.0 - 0.0 - - - - - - -
16/03:00pm 34.0 N 13 18 1004.2 - 0.0 - - - - - - -
16/02:30pm 35.1 N 10 17 1004.4 - 0.0 - - - - - - -
16/02:00pm 33.5 N 11 17 1004.7 - 0.0 - - - - - - -
16/01:30pm 33.9 N 11 17 1004.8 - 0.0 - - - - - - -
16/01:00pm 33.6 NNE 13 19 1005.1 - 0.0 - - - - - - -
16/12:30pm 33.0 NNE 12 17 1005.3 - 0.0 - - - - - - -
16/12:00pm 34.1 NNE 12 15 1005.5 - 0.0 - - - - - - -
16/11:30am 33.1 NNE 12 16 1005.7 - 0.0 - - - - - - -
16/11:00am 33.3 NNE 11 15 1006.0 - 0.0 - - - - - - -
16/10:30am 31.1 N 9 15 1006.4 - 0.0 - - - - - - -
16/10:00am 32.8 NE 4 8 1006.5 - 0.0 - - - - - - -
16/09:30am 30.8 SW 1 4 1006.7 - 0.0 - - - - - - -
16/09:00am 31.0 WNW 1 5 1006.8 - 0.4 - - - - - - -
16/08:30am 29.5 NW 3 6 1006.9 - 0.4 - - - - - - -
16/08:00am 29.3 S 3 6 1006.8 - 0.4 - - - - - - -
16/07:30am 27.9 SSW 5 7 1006.8 - 0.4 - - - - - - -
16/07:00am 27.0 SW 7 8 1006.7 - 0.4 - - - - - - -
16/06:30am 26.4 SW 4 6 1006.4 - 0.4 - - - - - - -
16/06:00am 26.1 SW 5 5 1006.0 - 0.4 - - - - - - -
16/05:30am 26.1 SW 5 7 1005.7 - 0.4 - - - - - - -
16/05:00am 26.7 WSW 3 5 1005.5 - 0.4 - - - - - - -
16/04:30am 26.7 WNW 1 4 1005.4 - 0.4 - - - - - - -
16/04:00am 26.4 NNW 1 3 1005.2 - 0.4 - - - - - - -
16/03:30am 26.4 NNW 3 4 1005.2 - 0.4 - - - - - - -
16/03:00am 26.3 N 4 4 1005.3 - 0.4 - - - - - - -
16/02:30am 26.5 N 3 4 1005.5 - 0.4 - - - - - - -
16/02:00am 26.5 NNW 6 8 1005.7 - 0.4 - - - - - - -
16/01:30am 26.9 NNW 5 7 1005.7 - 0.4 - - - - - - -
16/01:00am 26.8 NNW 9 13 1006.1 - 0.2 - - - - - - -
16/12:30am 28.1 N 7 9 1006.3 - 0.0 - - - - - - -
16/12:00am 28.1 NNE 5 8 1006.6 - 0.0 - - - - - - -
 
Date/Time
WST
Temp
°C
Wind Pressure Rain since
9am
mm
Weather Cloud Vis
km
Sea
Height
m
Swell
Dir  Spd
kts
Gust
kts
hPa Trend Height
m
Period
s
Dir
15/11:30pm 27.8 N 3 4 1006.8 - 0.0 - - - - - - -
15/11:00pm 27.9 N 4 5 1007.1 - 0.0 - - - - - - -
15/10:30pm 28.0 N 5 6 1007.1 - 0.0 - - - - - - -

Other Formats:

Comma delimited format used in spreadsheet applications
http://www.bom.gov.au/fwo/IDW60701/IDW60701.94308.axf

JavaScript Object Notation format (JSON) in row-major order
http://www.bom.gov.au/fwo/IDW60701/IDW60701.94308.json